CSN0117 KMSY-KAUS
Flight info
| Callsign | CSN0117 |
|---|---|
| Flight time | N/A |
| Altitude | 14000 |
| Route | LFT LCH V306 CWK |
| Aircraft | A320/M-SDE2E3FGHIJ1RWXY/LB1 |
Departure
| Time | 2026-04-28 09:54 |
|---|---|
| Airport | Louis Armstrong New Orleans International Airport (KMSY) |
Arrival
| Time | N/A |
|---|---|
| Airport | Austin Bergstrom International Airport (KAUS) |
| Time | Latitude | Longitude | Altitude | Speed | Heading |
|---|---|---|---|---|---|
| 2026-04-28 09:38 | 29.98841 | -90.25837 | 15 ft | 0 kts | 251° |
| 2026-04-28 09:43 | 29.98842 | -90.25834 | 15 ft | 2 kts | 251° |
| 2026-04-28 09:44 | 29.98846 | -90.25820 | 15 ft | 2 kts | 251° |
| 2026-04-28 09:44 | 29.98850 | -90.25809 | 15 ft | 0 kts | 251° |
| 2026-04-28 09:45 | 29.98853 | -90.25798 | 15 ft | 2 kts | 251° |
| 2026-04-28 09:45 | 29.98860 | -90.25774 | 17 ft | 6 kts | 251° |
| 2026-04-28 09:45 | 29.98880 | -90.25729 | 18 ft | 8 kts | 231° |
| 2026-04-28 09:45 | 29.98915 | -90.25684 | 18 ft | 8 kts | 215° |
| 2026-04-28 09:46 | 29.98926 | -90.25646 | 15 ft | 0 kts | 288° |
| 2026-04-28 09:48 | 29.98934 | -90.25672 | 18 ft | 16 kts | 287° |
| 2026-04-28 09:48 | 29.98983 | -90.25872 | 14 ft | 32 kts | 286° |
| 2026-04-28 09:48 | 29.99044 | -90.26125 | 12 ft | 33 kts | 286° |
| 2026-04-28 09:48 | 29.99109 | -90.26393 | 14 ft | 36 kts | 285° |
| 2026-04-28 09:49 | 29.99172 | -90.26652 | 11 ft | 30 kts | 285° |
| 2026-04-28 09:49 | 29.99230 | -90.26896 | 14 ft | 33 kts | 285° |
| 2026-04-28 09:49 | 29.99286 | -90.27130 | 13 ft | 29 kts | 286° |
| 2026-04-28 09:49 | 29.99344 | -90.27372 | 9 ft | 34 kts | 285° |
| 2026-04-28 09:50 | 29.99382 | -90.27524 | 9 ft | 7 kts | 285° |
| 2026-04-28 09:50 | 29.99395 | -90.27580 | 9 ft | 7 kts | 286° |
| 2026-04-28 09:50 | 29.99408 | -90.27631 | 11 ft | 7 kts | 285° |
| 2026-04-28 09:50 | 29.99423 | -90.27695 | 11 ft | 12 kts | 285° |
| 2026-04-28 09:51 | 29.99471 | -90.27790 | 9 ft | 14 kts | 359° |
| 2026-04-28 09:51 | 29.99494 | -90.27791 | 9 ft | 1 kts | 2° |
| 2026-04-28 09:51 | 29.99495 | -90.27791 | 9 ft | 0 kts | 2° |
| 2026-04-28 09:52 | 29.99556 | -90.27757 | 8 ft | 17 kts | 74° |
| 2026-04-28 09:52 | 29.99531 | -90.27620 | 7 ft | 19 kts | 105° |
| 2026-04-28 09:52 | 29.99524 | -90.27592 | 7 ft | 0 kts | 105° |
| 2026-04-28 09:53 | 29.99524 | -90.27588 | 7 ft | 1 kts | 105° |
| 2026-04-28 09:53 | 29.99520 | -90.27573 | 8 ft | 9 kts | 105° |
| 2026-04-28 09:53 | 29.99385 | -90.27060 | 16 ft | 128 kts | 108° |
| 2026-04-28 09:53 | 29.99041 | -90.25844 | 541 ft | 175 kts | 110° |
| 2026-04-28 09:54 | 29.98723 | -90.24481 | 1532 ft | 175 kts | 108° |
| 2026-04-28 09:54 | 29.98487 | -90.23078 | 2459 ft | 185 kts | 106° |
| 2026-04-28 09:54 | 29.98251 | -90.21552 | 3190 ft | 201 kts | 105° |
| 2026-04-28 09:54 | 29.97980 | -90.19876 | 3883 ft | 223 kts | 105° |
| 2026-04-28 09:55 | 29.97658 | -90.18054 | 4761 ft | 241 kts | 105° |
| 2026-04-28 09:55 | 29.97281 | -90.16123 | 5629 ft | 260 kts | 105° |
| 2026-04-28 09:55 | 29.96844 | -90.14021 | 6548 ft | 278 kts | 105° |
| 2026-04-28 09:55 | 29.96365 | -90.11814 | 7578 ft | 288 kts | 105° |
| 2026-04-28 09:56 | 29.95873 | -90.09546 | 8687 ft | 296 kts | 105° |
| 2026-04-28 09:56 | 29.95389 | -90.07210 | 9777 ft | 303 kts | 106° |
| 2026-04-28 09:56 | 29.94550 | -90.04961 | 10658 ft | 312 kts | 127° |
| 2026-04-28 09:56 | 29.92964 | -90.03215 | 11351 ft | 324 kts | 152° |
| 2026-04-28 09:57 | 29.90814 | -90.02357 | 12040 ft | 334 kts | 176° |
| 2026-04-28 09:57 | 29.88531 | -90.02622 | 12829 ft | 338 kts | 201° |
| 2026-04-28 09:57 | 29.86502 | -90.03976 | 13651 ft | 341 kts | 225° |
| 2026-04-28 09:57 | 29.85144 | -90.06175 | 13959 ft | 337 kts | 251° |
| 2026-04-28 09:58 | 29.84770 | -90.08797 | 14060 ft | 329 kts | 275° |
| 2026-04-28 09:58 | 29.85182 | -90.11326 | 14091 ft | 320 kts | 283° |
| 2026-04-28 09:58 | 29.85674 | -90.13821 | 14089 ft | 319 kts | 283° |
| 2026-04-28 09:58 | 29.86155 | -90.16319 | 14089 ft | 319 kts | 283° |
| 2026-04-28 09:59 | 29.86628 | -90.18819 | 14090 ft | 320 kts | 283° |
| 2026-04-28 09:59 | 29.87098 | -90.21320 | 14090 ft | 320 kts | 282° |
| 2026-04-28 09:59 | 29.87560 | -90.23788 | 14088 ft | 319 kts | 282° |
| 2026-04-28 09:59 | 29.88028 | -90.26289 | 14090 ft | 319 kts | 282° |
| 2026-04-28 10:00 | 29.88500 | -90.28789 | 14091 ft | 319 kts | 282° |
| 2026-04-28 10:00 | 29.88972 | -90.31291 | 14086 ft | 319 kts | 282° |
| 2026-04-28 10:00 | 29.89445 | -90.33793 | 14090 ft | 319 kts | 282° |
| 2026-04-28 10:00 | 29.89914 | -90.36288 | 14093 ft | 319 kts | 282° |
| 2026-04-28 10:01 | 29.90393 | -90.38839 | 14537 ft | 331 kts | 282° |
| 2026-04-28 10:01 | 29.90881 | -90.41443 | 15504 ft | 334 kts | 282° |
| 2026-04-28 10:01 | 29.91372 | -90.44066 | 16481 ft | 336 kts | 282° |
| 2026-04-28 10:01 | 29.91861 | -90.46681 | 17421 ft | 340 kts | 282° |
| 2026-04-28 10:02 | 29.92360 | -90.49357 | 18382 ft | 343 kts | 282° |
| 2026-04-28 10:02 | 29.92864 | -90.52061 | 19207 ft | 347 kts | 282° |
| 2026-04-28 10:02 | 29.93374 | -90.54796 | 20045 ft | 351 kts | 282° |
| 2026-04-28 10:02 | 29.93888 | -90.57559 | 20890 ft | 354 kts | 282° |
| 2026-04-28 10:03 | 29.94405 | -90.60345 | 21712 ft | 358 kts | 282° |
| 2026-04-28 10:03 | 29.94927 | -90.63165 | 22545 ft | 361 kts | 282° |
| 2026-04-28 10:03 | 29.95451 | -90.66013 | 23379 ft | 365 kts | 282° |
| 2026-04-28 10:03 | 29.95982 | -90.68888 | 24112 ft | 369 kts | 282° |
| 2026-04-28 10:04 | 29.96512 | -90.71754 | 24814 ft | 371 kts | 282° |
| 2026-04-28 10:04 | 29.97050 | -90.74668 | 25524 ft | 373 kts | 282° |
| 2026-04-28 10:04 | 29.97590 | -90.77600 | 26220 ft | 375 kts | 283° |
| 2026-04-28 10:04 | 29.98134 | -90.80553 | 26898 ft | 377 kts | 283° |
| 2026-04-28 10:05 | 29.98679 | -90.83512 | 27546 ft | 379 kts | 283° |
| 2026-04-28 10:05 | 29.99229 | -90.86499 | 28190 ft | 381 kts | 283° |
| 2026-04-28 10:05 | 29.99775 | -90.89484 | 28960 ft | 379 kts | 283° |
| 2026-04-28 10:05 | 30.00313 | -90.92440 | 29871 ft | 375 kts | 283° |
| 2026-04-28 10:06 | 30.00844 | -90.95364 | 30693 ft | 370 kts | 283° |
| 2026-04-28 10:06 | 30.01366 | -90.98254 | 31466 ft | 366 kts | 283° |
| 2026-04-28 10:06 | 30.01886 | -91.01124 | 31899 ft | 363 kts | 284° |
| 2026-04-28 10:06 | 30.02402 | -91.03958 | 32050 ft | 360 kts | 284° |
| 2026-04-28 10:07 | 30.03427 | -91.09562 | 32079 ft | 359 kts | 284° |
| 2026-04-28 10:07 | 30.04454 | -91.15199 | 32078 ft | 359 kts | 284° |
| 2026-04-28 10:08 | 30.05474 | -91.20836 | 32082 ft | 359 kts | 284° |
| 2026-04-28 10:08 | 30.06488 | -91.26442 | 32077 ft | 359 kts | 284° |
| 2026-04-28 10:09 | 30.07501 | -91.32075 | 32083 ft | 359 kts | 283° |
| 2026-04-28 10:09 | 30.08507 | -91.37704 | 32080 ft | 359 kts | 283° |
| 2026-04-28 10:10 | 30.09519 | -91.43347 | 32080 ft | 363 kts | 283° |
| 2026-04-28 10:10 | 30.10046 | -91.46270 | 32075 ft | 380 kts | 283° |
| 2026-04-28 10:10 | 30.10595 | -91.49321 | 32070 ft | 395 kts | 283° |
| 2026-04-28 10:11 | 30.11158 | -91.52474 | 32071 ft | 407 kts | 283° |
| 2026-04-28 10:11 | 30.11733 | -91.55715 | 32070 ft | 416 kts | 283° |
| 2026-04-28 10:11 | 30.12896 | -91.62295 | 32073 ft | 423 kts | 283° |
| 2026-04-28 10:12 | 30.14074 | -91.68947 | 32066 ft | 423 kts | 283° |
| 2026-04-28 10:12 | 30.15244 | -91.75603 | 32067 ft | 423 kts | 283° |
| 2026-04-28 10:13 | 30.16407 | -91.82255 | 32068 ft | 422 kts | 283° |
| 2026-04-28 10:13 | 30.17567 | -91.88863 | 32073 ft | 422 kts | 283° |
| 2026-04-28 10:14 | 30.18733 | -91.95513 | 32076 ft | 422 kts | 282° |
| 2026-04-28 10:14 | 30.19264 | -92.02262 | 32073 ft | 426 kts | 270° |
| 2026-04-28 10:15 | 30.18962 | -92.09094 | 32075 ft | 426 kts | 270° |
| 2026-04-28 10:15 | 30.18660 | -92.15926 | 32071 ft | 425 kts | 270° |
| 2026-04-28 10:16 | 30.18367 | -92.22549 | 32076 ft | 391 kts | 270° |
| 2026-04-28 10:16 | 30.18225 | -92.25599 | 32063 ft | 369 kts | 270° |
| 2026-04-28 10:16 | 30.18091 | -92.28474 | 32065 ft | 361 kts | 270° |
| 2026-04-28 10:17 | 30.17833 | -92.34261 | 32069 ft | 360 kts | 270° |
| 2026-04-28 10:17 | 30.17574 | -92.40043 | 32057 ft | 360 kts | 270° |
| 2026-04-28 10:18 | 30.17308 | -92.45823 | 32061 ft | 360 kts | 270° |
| 2026-04-28 10:18 | 30.17037 | -92.51593 | 32067 ft | 359 kts | 269° |
| 2026-04-28 10:19 | 30.16765 | -92.57353 | 32064 ft | 359 kts | 269° |
| 2026-04-28 10:19 | 30.16495 | -92.63075 | 32065 ft | 359 kts | 269° |
| 2026-04-28 10:20 | 30.16221 | -92.68832 | 32071 ft | 358 kts | 269° |
| 2026-04-28 10:20 | 30.15943 | -92.74601 | 32040 ft | 362 kts | 269° |
| 2026-04-28 10:21 | 30.15659 | -92.80411 | 32046 ft | 362 kts | 269° |
| 2026-04-28 10:21 | 30.15376 | -92.86177 | 32050 ft | 362 kts | 269° |
| 2026-04-28 10:22 | 30.15091 | -92.92020 | 32053 ft | 375 kts | 269° |
| 2026-04-28 10:22 | 30.14943 | -92.95082 | 32051 ft | 388 kts | 269° |
| 2026-04-28 10:22 | 30.14788 | -92.98232 | 32047 ft | 399 kts | 269° |
| 2026-04-28 10:23 | 30.14459 | -93.04778 | 32046 ft | 415 kts | 269° |
| 2026-04-28 10:23 | 30.14183 | -93.11498 | 32043 ft | 420 kts | 270° |
| 2026-04-28 10:24 | 30.13673 | -93.18221 | 32046 ft | 421 kts | 265° |
| 2026-04-28 10:24 | 30.12803 | -93.24866 | 32042 ft | 421 kts | 264° |
| 2026-04-28 10:25 | 30.11960 | -93.31565 | 32043 ft | 424 kts | 265° |
| 2026-04-28 10:25 | 30.11222 | -93.38341 | 32033 ft | 426 kts | 265° |
| 2026-04-28 10:26 | 30.10510 | -93.45129 | 32049 ft | 426 kts | 265° |
| 2026-04-28 10:26 | 30.09783 | -93.51920 | 32053 ft | 426 kts | 265° |
| 2026-04-28 10:27 | 30.09037 | -93.58700 | 32054 ft | 426 kts | 265° |
| 2026-04-28 10:27 | 30.08293 | -93.65430 | 32055 ft | 426 kts | 265° |
| 2026-04-28 10:28 | 30.07550 | -93.72205 | 32058 ft | 425 kts | 265° |
| 2026-04-28 10:29 | 30.06420 | -93.82364 | 31984 ft | 425 kts | 265° |
| 2026-04-28 10:29 | 30.05917 | -93.86859 | 32023 ft | 426 kts | 265° |
| 2026-04-28 10:30 | 30.04898 | -93.95920 | 32014 ft | 425 kts | 265° |
| 2026-04-28 10:30 | 30.04138 | -94.02626 | 32013 ft | 425 kts | 265° |
| 2026-04-28 10:31 | 30.03372 | -94.09383 | 32015 ft | 424 kts | 265° |
| 2026-04-28 10:31 | 30.02601 | -94.16133 | 32012 ft | 424 kts | 265° |
| 2026-04-28 10:32 | 30.01831 | -94.22878 | 32015 ft | 424 kts | 265° |
| 2026-04-28 10:32 | 30.01064 | -94.29570 | 32014 ft | 424 kts | 265° |
| 2026-04-28 10:33 | 30.00283 | -94.36303 | 32011 ft | 423 kts | 265° |
| 2026-04-28 10:33 | 29.99500 | -94.43033 | 32013 ft | 423 kts | 265° |
| 2026-04-28 10:34 | 29.98736 | -94.49761 | 32000 ft | 423 kts | 265° |
| 2026-04-28 10:34 | 29.98001 | -94.56481 | 31994 ft | 422 kts | 265° |
| 2026-04-28 10:35 | 29.97271 | -94.63195 | 31991 ft | 422 kts | 265° |
| 2026-04-28 10:35 | 29.96551 | -94.69860 | 31990 ft | 422 kts | 265° |
| 2026-04-28 10:36 | 29.95834 | -94.76573 | 31990 ft | 421 kts | 265° |
| 2026-04-28 10:36 | 29.95126 | -94.83276 | 31986 ft | 421 kts | 265° |
| 2026-04-28 10:37 | 29.94425 | -94.89974 | 31987 ft | 421 kts | 265° |
| 2026-04-28 10:37 | 29.93734 | -94.96628 | 31982 ft | 420 kts | 265° |
| 2026-04-28 10:38 | 29.93044 | -95.03318 | 31977 ft | 420 kts | 265° |
| 2026-04-28 10:38 | 29.92361 | -95.10002 | 31973 ft | 420 kts | 265° |
| 2026-04-28 10:39 | 29.91681 | -95.16686 | 31971 ft | 420 kts | 265° |
| 2026-04-28 10:39 | 29.91004 | -95.23367 | 31971 ft | 420 kts | 265° |
| 2026-04-28 10:40 | 29.90340 | -95.30002 | 31969 ft | 420 kts | 265° |
| 2026-04-28 10:40 | 29.89678 | -95.36682 | 31967 ft | 420 kts | 265° |
| 2026-04-28 10:41 | 29.89021 | -95.43352 | 31974 ft | 419 kts | 265° |
| 2026-04-28 10:41 | 29.88364 | -95.50036 | 31792 ft | 417 kts | 265° |
| 2026-04-28 10:41 | 29.88044 | -95.53343 | 30847 ft | 415 kts | 265° |
| 2026-04-28 10:42 | 29.87741 | -95.56651 | 29372 ft | 417 kts | 265° |
| 2026-04-28 10:42 | 29.87459 | -95.59988 | 27633 ft | 421 kts | 265° |
| 2026-04-28 10:42 | 29.87192 | -95.63327 | 25825 ft | 429 kts | 265° |
| 2026-04-28 10:42 | 29.86930 | -95.66782 | 24035 ft | 437 kts | 265° |
| 2026-04-28 10:43 | 29.86679 | -95.70303 | 22111 ft | 446 kts | 265° |
| 2026-04-28 10:43 | 29.86444 | -95.73883 | 20696 ft | 445 kts | 265° |
| 2026-04-28 10:43 | 29.86233 | -95.77346 | 20297 ft | 422 kts | 266° |
| 2026-04-28 10:43 | 29.86040 | -95.80620 | 20181 ft | 399 kts | 266° |
| 2026-04-28 10:44 | 29.85860 | -95.83724 | 20066 ft | 379 kts | 266° |
| 2026-04-28 10:44 | 29.85691 | -95.86690 | 19949 ft | 362 kts | 266° |
| 2026-04-28 10:44 | 29.85532 | -95.89522 | 19688 ft | 350 kts | 266° |
| 2026-04-28 10:44 | 29.85379 | -95.92302 | 19210 ft | 346 kts | 266° |
| 2026-04-28 10:45 | 29.85440 | -95.94996 | 18980 ft | 336 kts | 278° |
| 2026-04-28 10:45 | 29.85964 | -95.97614 | 18704 ft | 328 kts | 282° |
| 2026-04-28 10:45 | 29.86498 | -96.00122 | 18281 ft | 326 kts | 282° |
| 2026-04-28 10:45 | 29.87044 | -96.02652 | 17757 ft | 325 kts | 282° |
| 2026-04-28 10:46 | 29.87585 | -96.05173 | 17253 ft | 324 kts | 282° |
| 2026-04-28 10:46 | 29.88126 | -96.07692 | 16790 ft | 322 kts | 282° |
| 2026-04-28 10:46 | 29.88664 | -96.10190 | 16307 ft | 321 kts | 282° |
| 2026-04-28 10:46 | 29.89201 | -96.12688 | 15829 ft | 320 kts | 282° |
| 2026-04-28 10:47 | 29.89737 | -96.15174 | 15362 ft | 320 kts | 282° |
| 2026-04-28 10:47 | 29.90269 | -96.17658 | 14915 ft | 318 kts | 282° |
| 2026-04-28 10:47 | 29.90797 | -96.20134 | 14464 ft | 318 kts | 282° |
| 2026-04-28 10:47 | 29.91318 | -96.22566 | 14046 ft | 318 kts | 282° |
| 2026-04-28 10:48 | 29.91851 | -96.25046 | 13878 ft | 319 kts | 282° |
| 2026-04-28 10:48 | 29.92384 | -96.27525 | 13883 ft | 320 kts | 282° |